Time;durP1;ratioP1;P1;durP2;ratioP2;P2;SDS_P1;SDS_P2;PMS_P1;PMS_P2;Temp;Humidity;BMP_temperature;BMP_pressure;BME280_temperature;BME280_humidity;BME280_pressure;Samples;Min_cycle;Max_cycle;Signal;HPM_P1;HPM_P2
2024/02/07 00:01:07;;;;;;;12.88;1.73;;;6.00;99.90;;;;;;5112684;28;20039;-90
2024/02/07 00:03:34;;;;;;;5.05;1.35;;;5.40;99.90;;;;;;5096155;28;20044;-90
2024/02/07 00:06:00;;;;;;;11.02;1.20;;;5.30;99.90;;;;;;5100649;28;20109;-90
2024/02/07 00:08:27;;;;;;;5.32;0.93;;;6.40;99.90;;;;;;5101946;28;20504;-90
2024/02/07 00:10:54;;;;;;;11.13;2.08;;;5.40;99.90;;;;;;5102595;28;20047;-90
2024/02/07 00:13:20;;;;;;;7.43;1.40;;;5.30;99.90;;;;;;5098424;28;20032;-91
2024/02/07 00:15:47;;;;;;;5.25;1.25;;;6.40;99.90;;;;;;5103635;28;20127;-90
2024/02/07 00:18:13;;;;;;;7.68;1.25;;;5.30;99.90;;;;;;5098547;28;20647;-91
2024/02/07 00:20:40;;;;;;;7.82;1.83;;;6.00;99.90;;;;;;5108573;28;20131;-90
2024/02/07 00:23:07;;;;;;;8.32;1.13;;;5.30;99.90;;;;;;5096791;28;20086;-90
2024/02/07 00:25:34;;;;;;;5.50;1.20;;;5.40;99.90;;;;;;5106337;28;20508;-90
2024/02/07 00:28:00;;;;;;;7.32;1.30;;;5.30;99.90;;;;;;5095404;28;20056;-91
2024/02/07 00:30:29;;;;;;;7.90;1.00;;;5.40;99.90;;;;;;5106295;28;20039;-90
2024/02/07 00:32:55;;;;;;;8.20;1.65;;;5.40;99.90;;;;;;5098494;28;20071;-90
2024/02/07 00:35:22;;;;;;;8.10;1.10;;;5.40;99.90;;;;;;5106747;28;20055;-89
2024/02/07 00:37:49;;;;;;;6.07;1.23;;;5.40;99.90;;;;;;5109618;27;20042;-90
2024/02/07 00:40:15;;;;;;;4.65;1.05;;;5.50;99.90;;;;;;5116601;28;20047;-90
2024/02/07 00:42:42;;;;;;;7.38;1.20;;;5.60;99.90;;;;;;5106472;28;20035;-91
2024/02/07 00:45:09;;;;;;;10.00;1.35;;;5.40;99.90;;;;;;5106845;28;20054;-91
2024/02/07 00:47:35;;;;;;;7.72;1.20;;;5.70;99.90;;;;;;5111323;28;20051;-90
2024/02/07 00:50:02;;;;;;;12.82;1.38;;;5.40;99.90;;;;;;5118169;28;20042;-91
2024/02/07 00:52:29;;;;;;;10.02;1.63;;;5.40;99.90;;;;;;5109563;28;20023;-90
2024/02/07 00:54:55;;;;;;;9.52;1.15;;;5.50;99.90;;;;;;5117602;28;20504;-90
2024/02/07 00:57:23;;;;;;;11.35;1.65;;;5.50;99.90;;;;;;5098084;28;20126;-90
2024/02/07 00:59:49;;;;;;;8.93;1.30;;;5.50;99.90;;;;;;5111110;28;20071;-90
2024/02/07 01:02:16;;;;;;;9.93;1.48;;;5.50;99.90;;;;;;5104969;28;20066;-91
2024/02/07 01:04:43;;;;;;;14.85;2.00;;;6.10;99.90;;;;;;5116977;28;20075;-90
2024/02/07 01:07:09;;;;;;;8.40;1.38;;;5.60;99.90;;;;;;5097520;28;20075;-90
2024/02/07 01:09:36;;;;;;;6.60;1.50;;;5.60;99.90;;;;;;5098884;28;20036;-90
2024/02/07 01:12:03;;;;;;;9.00;1.45;;;5.50;99.90;;;;;;5098650;28;20032;-90
2024/02/07 01:14:29;;;;;;;9.40;1.48;;;5.50;99.90;;;;;;5126841;27;20043;-90
2024/02/07 01:16:56;;;;;;;10.13;1.67;;;5.60;99.90;;;;;;5111651;28;20036;-91
2024/02/07 01:19:24;;;;;;;8.52;1.40;;;5.70;99.90;;;;;;5105774;28;20393;-90
2024/02/07 01:21:50;;;;;;;10.88;1.40;;;6.40;99.90;;;;;;5105738;28;20069;-90
2024/02/07 01:24:17;;;;;;;7.53;1.20;;;6.00;99.90;;;;;;5097669;28;20040;-90
2024/02/07 01:26:44;;;;;;;8.43;2.28;;;6.20;99.90;;;;;;5108774;28;20048;-90
2024/02/07 01:29:10;;;;;;;9.48;1.30;;;5.60;99.90;;;;;;5114665;28;20056;-91
2024/02/07 01:31:37;;;;;;;9.93;1.83;;;6.30;99.90;;;;;;5117895;28;20039;-90
2024/02/07 01:34:05;;;;;;;9.07;1.40;;;5.60;99.90;;;;;;5102342;28;20036;-90
2024/02/07 01:36:31;;;;;;;12.02;1.48;;;5.50;99.90;;;;;;5102829;28;20434;-90
2024/02/07 01:38:59;;;;;;;8.65;1.30;;;5.60;99.90;;;;;;5122007;28;20073;-90
2024/02/07 01:41:28;;;;;;;11.18;1.92;;;6.10;99.90;;;;;;5086069;28;20042;-90
2024/02/07 01:43:55;;;;;;;12.10;1.50;;;6.20;99.90;;;;;;5110585;28;20044;-90
2024/02/07 01:46:22;;;;;;;12.85;1.80;;;6.20;99.90;;;;;;5132196;28;20028;-90
2024/02/07 01:48:49;;;;;;;8.48;1.55;;;5.50;99.90;;;;;;5107639;28;20531;-91
2024/02/07 01:51:16;;;;;;;11.90;1.63;;;5.50;99.90;;;;;;5096828;28;20404;-90
2024/02/07 01:53:43;;;;;;;14.98;1.48;;;5.80;99.90;;;;;;5098523;28;20036;-90
2024/02/07 01:56:10;;;;;;;5.53;1.50;;;6.10;99.90;;;;;;5105118;28;20032;-91
2024/02/07 01:58:37;;;;;;;10.80;2.17;;;6.50;99.90;;;;;;5109749;28;20089;-90
2024/02/07 02:01:03;;;;;;;11.57;2.25;;;5.60;99.90;;;;;;5097185;28;20119;-90
2024/02/07 02:03:30;;;;;;;13.40;2.22;;;6.00;99.90;;;;;;5096353;28;20036;-90
2024/02/07 02:05:57;;;;;;;14.65;1.77;;;5.70;99.90;;;;;;5107213;28;20123;-91
2024/02/07 02:08:23;;;;;;;11.68;2.90;;;6.70;99.90;;;;;;5103473;28;20032;-88
2024/02/07 02:10:57;;;;;;;13.95;2.97;;;6.50;99.90;;;;;;5114273;28;20055;-90
2024/02/07 02:13:23;;;;;;;16.45;2.20;;;6.20;99.90;;;;;;5113188;28;20077;-90
2024/02/07 02:15:50;;;;;;;17.13;2.05;;;5.70;99.90;;;;;;5101940;28;20044;-90
2024/02/07 02:18:17;;;;;;;15.27;1.83;;;5.70;99.90;;;;;;5114114;28;20043;-90
2024/02/07 02:20:44;;;;;;;16.65;2.20;;;6.00;99.90;;;;;;5105412;28;20622;-90
2024/02/07 02:23:26;;;;;;;20.48;2.13;;;5.70;99.90;;;;;;5104031;28;20048;-90
2024/02/07 02:26:18;;;;;;;20.23;2.45;;;5.70;99.90;;;;;;5107217;28;20051;-90
2024/02/07 02:29:04;;;;;;;10.30;2.05;;;5.70;99.90;;;;;;5099523;28;20181;-90
2024/02/07 02:31:34;;;;;;;15.50;2.35;;;5.70;99.90;;;;;;5109260;28;20037;-90
2024/02/07 02:34:02;;;;;;;13.75;1.95;;;6.00;99.90;;;;;;5116093;28;20043;-90
2024/02/07 02:36:29;;;;;;;18.35;2.03;;;6.60;99.90;;;;;;5101759;28;20477;-91
2024/02/07 02:38:56;;;;;;;16.02;2.17;;;5.70;99.90;;;;;;5098750;28;20044;-90
2024/02/07 02:41:23;;;;;;;13.38;2.17;;;5.40;99.90;;;;;;5099427;28;20036;-90
2024/02/07 02:43:49;;;;;;;28.27;4.18;;;6.40;99.90;;;;;;5103773;28;20040;-90
2024/02/07 02:46:16;;;;;;;17.63;2.58;;;6.30;99.90;;;;;;5105372;28;20040;-90
2024/02/07 02:48:43;;;;;;;16.75;2.60;;;6.50;99.90;;;;;;5092874;28;20040;-90
2024/02/07 02:51:10;;;;;;;12.27;2.38;;;5.70;99.90;;;;;;5101123;28;20044;-91
2024/02/07 02:53:37;;;;;;;12.48;2.42;;;5.90;99.90;;;;;;5103059;28;20442;-90
2024/02/07 02:56:05;;;;;;;16.88;2.67;;;5.60;99.90;;;;;;5106341;28;20032;-90
2024/02/07 02:58:32;;;;;;;20.10;2.60;;;5.60;99.90;;;;;;5096703;28;20079;-90
2024/02/07 03:01:03;;;;;;;17.17;2.40;;;5.70;99.90;;;;;;5092160;28;20041;-90
2024/02/07 03:03:33;;;;;;;13.07;2.47;;;6.40;99.90;;;;;;5095718;28;20115;-90
2024/02/07 03:06:00;;;;;;;13.65;2.42;;;5.70;99.90;;;;;;5104075;28;20085;-90
2024/02/07 03:08:40;;;;;;;19.95;2.58;;;5.80;99.90;;;;;;5098539;28;20040;-90
2024/02/07 03:11:10;;;;;;;15.70;2.08;;;5.70;99.90;;;;;;5112403;28;20036;-90
2024/02/07 03:13:39;;;;;;;18.17;2.58;;;6.30;99.90;;;;;;5098422;28;20032;-89
2024/02/07 03:16:07;;;;;;;16.23;2.65;;;5.70;99.90;;;;;;5091994;28;20047;-90
2024/02/07 03:18:35;;;;;;;14.43;2.10;;;6.50;99.90;;;;;;5106063;28;20040;-90
2024/02/07 03:21:05;;;;;;;11.15;2.42;;;6.00;99.90;;;;;;5098414;28;20553;-89
2024/02/07 03:23:32;;;;;;;16.85;2.30;;;5.40;99.90;;;;;;5091383;28;20040;-90
2024/02/07 03:26:04;;;;;;;19.67;2.45;;;5.40;99.90;;;;;;5104879;28;20039;-90
2024/02/07 03:28:31;;;;;;;15.75;2.10;;;5.50;99.90;;;;;;5084517;28;20052;-90
2024/02/07 03:30:58;;;;;;;17.40;2.55;;;6.30;99.90;;;;;;5094948;28;20044;-90
2024/02/07 03:33:25;;;;;;;12.48;2.65;;;5.30;99.90;;;;;;5111571;28;20083;-90
2024/02/07 03:35:53;;;;;;;18.42;2.13;;;5.70;99.90;;;;;;5108092;28;20404;-90
2024/02/07 03:38:20;;;;;;;16.42;1.85;;;6.10;99.90;;;;;;5108377;28;20035;-90
2024/02/07 03:40:49;;;;;;;14.05;2.35;;;5.50;99.90;;;;;;5101511;28;20839;-90
2024/02/07 03:43:17;;;;;;;15.48;2.20;;;5.30;99.90;;;;;;5097550;28;20048;-90
2024/02/07 03:45:44;;;;;;;12.95;2.38;;;5.30;99.90;;;;;;5094242;28;20047;-91
2024/02/07 03:48:13;;;;;;;13.60;1.83;;;6.10;99.90;;;;;;5095045;28;20416;-90
2024/02/07 03:50:40;;;;;;;15.27;2.53;;;5.20;99.90;;;;;;5098728;28;20479;-90
2024/02/07 03:53:07;;;;;;;14.98;2.03;;;5.20;99.90;;;;;;5094959;28;20040;-90
2024/02/07 03:55:36;;;;;;;16.60;2.25;;;5.50;99.90;;;;;;5101053;28;20660;-90
2024/02/07 03:58:05;;;;;;;13.77;2.13;;;5.20;99.90;;;;;;5103426;28;20067;-90
2024/02/07 04:00:32;;;;;;;18.90;2.88;;;5.20;99.90;;;;;;5095577;28;20036;-90
2024/02/07 04:02:58;;;;;;;14.02;2.00;;;5.20;99.90;;;;;;5100357;28;20089;-90
2024/02/07 04:05:25;;;;;;;19.75;2.38;;;5.20;99.90;;;;;;5114058;28;20040;-90
2024/02/07 04:07:52;;;;;;;17.75;2.40;;;5.30;99.90;;;;;;5104486;28;20507;-89
2024/02/07 04:10:18;;;;;;;12.48;2.30;;;5.90;99.90;;;;;;5098049;28;20469;-89
2024/02/07 05:16:08;;;;;;;10.18;2.30;;;4.80;99.90;;;;;;5123496;28;20036;-90
2024/02/07 05:18:35;;;;;;;13.30;2.30;;;4.70;99.90;;;;;;5105204;28;20044;-90
2024/02/07 05:21:01;;;;;;;13.88;2.15;;;4.70;99.90;;;;;;5105462;28;20036;-89
2024/02/07 05:23:28;;;;;;;17.73;1.98;;;4.70;99.90;;;;;;5101576;28;20484;-90
2024/02/07 05:26:00;;;;;;;14.20;1.95;;;4.70;99.90;;;;;;5108336;28;20044;-90
2024/02/07 05:28:26;;;;;;;11.50;1.75;;;4.70;99.90;;;;;;5113591;28;20135;-90
2024/02/07 05:30:53;;;;;;;14.63;1.73;;;4.70;99.90;;;;;;5113007;28;20471;-90
2024/02/07 05:33:19;;;;;;;12.32;1.65;;;4.60;99.90;;;;;;5097359;28;20032;-90
2024/02/07 05:35:46;;;;;;;14.25;1.60;;;4.60;99.90;;;;;;5098490;28;20032;-90
2024/02/07 05:38:13;;;;;;;10.25;1.85;;;4.70;99.90;;;;;;5107283;28;20047;-90
2024/02/07 05:40:39;;;;;;;10.40;1.50;;;5.40;99.90;;;;;;5102985;28;20039;-90
2024/02/07 05:43:10;;;;;;;12.80;2.22;;;5.70;99.90;;;;;;5117774;28;20063;-90
2024/02/07 05:45:37;;;;;;;11.65;1.50;;;4.60;99.90;;;;;;5113022;28;20415;-89
2024/02/07 05:48:04;;;;;;;11.23;1.33;;;4.60;99.90;;;;;;5106465;28;20127;-90
2024/02/07 05:50:31;;;;;;;10.98;1.77;;;4.60;99.90;;;;;;5104172;28;20560;-90
2024/02/07 05:52:57;;;;;;;8.35;1.60;;;4.60;99.90;;;;;;5096833;28;20067;-89
2024/02/07 05:55:24;;;;;;;14.52;2.28;;;4.50;99.90;;;;;;5097071;28;20551;-90
2024/02/07 05:57:50;;;;;;;16.02;1.77;;;5.30;99.90;;;;;;5096891;28;20036;-90
2024/02/07 06:00:17;;;;;;;16.23;1.77;;;4.60;99.90;;;;;;5100000;28;20035;-90
2024/02/07 06:02:44;;;;;;;12.65;2.58;;;4.50;99.90;;;;;;5113159;28;20887;-89
2024/02/07 06:05:11;;;;;;;14.63;1.65;;;4.50;99.90;;;;;;5110051;28;20050;-90
2024/02/07 06:07:38;;;;;;;11.55;2.00;;;4.40;99.90;;;;;;5100269;28;20036;-89
2024/02/07 06:10:05;;;;;;;15.45;2.85;;;5.20;99.90;;;;;;5097535;28;20044;-90
2024/02/07 06:12:32;;;;;;;15.27;1.60;;;4.30;99.90;;;;;;5106660;28;20034;-89
2024/02/07 06:15:02;;;;;;;17.75;1.77;;;5.10;99.90;;;;;;5104140;28;20040;-89
2024/02/07 06:17:29;;;;;;;18.70;2.53;;;4.60;99.90;;;;;;5096619;28;20036;-90
2024/02/07 06:19:56;;;;;;;10.70;1.80;;;5.00;99.90;;;;;;5096827;28;20588;-90
2024/02/07 06:22:22;;;;;;;13.95;2.17;;;4.40;99.90;;;;;;5096208;28;20036;-90
2024/02/07 06:24:49;;;;;;;14.88;2.20;;;4.30;99.90;;;;;;5096067;28;20507;-90
2024/02/07 06:27:16;;;;;;;18.15;2.00;;;5.40;99.90;;;;;;5108432;28;20038;-90
2024/02/07 06:29:42;;;;;;;18.10;3.00;;;4.80;99.90;;;;;;5100518;28;20039;-90
2024/02/07 06:32:09;;;;;;;12.75;1.95;;;4.30;99.90;;;;;;5109954;28;20078;-90
2024/02/07 06:34:37;;;;;;;13.35;2.13;;;4.30;99.90;;;;;;5102655;28;20051;-90
2024/02/07 06:37:03;;;;;;;10.13;1.77;;;4.20;99.90;;;;;;5116450;28;20027;-90
2024/02/07 06:39:30;;;;;;;11.63;1.90;;;5.00;99.90;;;;;;5110289;27;20057;-90
2024/02/07 06:41:57;;;;;;;19.13;2.08;;;4.20;99.90;;;;;;5120605;28;20399;-89
2024/02/07 06:44:23;;;;;;;13.20;2.13;;;4.60;99.90;;;;;;5104028;28;20050;-89
2024/02/07 06:46:50;;;;;;;19.80;1.83;;;4.20;99.90;;;;;;5100398;28;20040;-90
2024/02/07 06:49:17;;;;;;;14.65;2.03;;;4.20;99.90;;;;;;5108027;28;20043;-90
2024/02/07 06:51:43;;;;;;;16.00;2.20;;;4.60;99.90;;;;;;5101405;28;20036;-90
2024/02/07 06:54:10;;;;;;;11.50;2.53;;;4.10;99.90;;;;;;5104960;28;20039;-90
2024/02/07 06:56:37;;;;;;;11.18;1.92;;;4.20;99.90;;;;;;5095738;28;20043;-90
2024/02/07 06:59:11;;;;;;;12.48;2.10;;;4.10;99.90;;;;;;5139197;27;20095;-90
2024/02/07 07:01:39;;;;;;;10.45;1.65;;;4.10;99.90;;;;;;5109001;28;20039;-90
2024/02/07 07:04:06;;;;;;;9.60;1.52;;;4.00;99.90;;;;;;5109989;28;20130;-90
2024/02/07 07:06:32;;;;;;;14.30;2.25;;;4.00;99.90;;;;;;5096892;28;20079;-90
2024/02/07 07:08:59;;;;;;;14.43;2.70;;;4.00;99.90;;;;;;5102342;28;20144;-88
2024/02/07 07:11:26;;;;;;;12.45;2.08;;;4.20;99.90;;;;;;5095696;28;20036;-90
2024/02/07 07:13:52;;;;;;;12.60;1.92;;;4.50;99.90;;;;;;5107884;28;20089;-88
2024/02/07 07:16:22;;;;;;;11.57;1.75;;;4.90;99.90;;;;;;5104501;28;20040;-89
2024/02/07 07:18:52;;;;;;;12.05;1.80;;;4.00;99.90;;;;;;5099910;28;20047;-88
2024/02/07 07:21:20;;;;;;;9.35;2.15;;;4.40;99.90;;;;;;5097036;28;20040;-89
2024/02/07 07:23:46;;;;;;;15.20;1.92;;;4.00;99.90;;;;;;5114446;28;20481;-89
2024/02/07 07:26:13;;;;;;;9.95;1.70;;;4.00;99.90;;;;;;5100101;28;20051;-89
2024/02/07 07:28:40;;;;;;;14.77;1.90;;;4.20;99.90;;;;;;5102790;28;20047;-89
2024/02/07 07:31:06;;;;;;;10.70;1.80;;;4.00;99.90;;;;;;5105197;28;20062;-88
2024/02/07 07:33:33;;;;;;;13.35;1.52;;;5.20;99.90;;;;;;5113841;28;20032;-88
2024/02/07 07:36:00;;;;;;;14.32;2.03;;;4.00;99.90;;;;;;5106776;28;20459;-89
2024/02/07 07:38:26;;;;;;;11.85;1.85;;;4.50;99.90;;;;;;5100078;28;20036;-89
2024/02/07 07:40:53;;;;;;;11.27;1.70;;;4.40;99.90;;;;;;5103509;28;20047;-87
2024/02/07 07:43:20;;;;;;;13.82;2.05;;;4.00;99.90;;;;;;5105158;28;20259;-89
2024/02/07 07:45:47;;;;;;;12.38;1.98;;;4.00;99.90;;;;;;5107594;28;20042;-89
2024/02/07 07:48:15;;;;;;;7.53;1.70;;;4.00;99.90;;;;;;5101947;28;20039;-89
2024/02/07 07:50:42;;;;;;;15.00;1.70;;;4.00;99.90;;;;;;5101515;28;20062;-89
2024/02/07 07:53:08;;;;;;;14.65;1.98;;;4.90;99.90;;;;;;5106918;28;20032;-88
2024/02/07 07:55:36;;;;;;;10.45;2.28;;;4.80;99.90;;;;;;5104140;28;20511;-89
2024/02/07 07:58:03;;;;;;;8.32;1.80;;;4.10;99.90;;;;;;5103349;28;20067;-89
2024/02/07 08:00:30;;;;;;;12.95;1.85;;;4.10;99.90;;;;;;5110964;28;20111;-91
2024/02/07 08:02:56;;;;;;;12.32;1.40;;;4.70;99.90;;;;;;5099296;28;20561;-89
2024/02/07 08:05:23;;;;;;;14.73;1.70;;;4.70;99.90;;;;;;5103886;28;20123;-91
2024/02/07 08:07:50;;;;;;;14.13;1.88;;;4.00;99.90;;;;;;5100713;28;20071;-89
2024/02/07 08:10:16;;;;;;;10.07;1.75;;;4.10;99.90;;;;;;5099681;28;20110;-89
2024/02/07 08:12:43;;;;;;;12.95;1.88;;;5.00;99.90;;;;;;5098689;28;20093;-92
2024/02/07 08:15:12;;;;;;;13.77;1.70;;;4.50;99.90;;;;;;5099272;28;20067;-90
2024/02/07 08:17:39;;;;;;;9.30;1.40;;;4.10;99.90;;;;;;5105471;28;20036;-90
2024/02/07 08:20:06;;;;;;;9.55;2.05;;;4.70;99.90;;;;;;5099875;28;20382;-87
2024/02/07 08:22:33;;;;;;;12.40;1.67;;;4.10;99.90;;;;;;5112172;28;20040;-89
2024/02/07 08:24:59;;;;;;;10.48;1.45;;;4.20;99.90;;;;;;5105776;28;20522;-88
2024/02/07 08:27:26;;;;;;;13.02;1.60;;;4.20;99.90;;;;;;5095144;28;20063;-88
2024/02/07 08:29:53;;;;;;;6.28;1.30;;;4.40;99.90;;;;;;5099040;28;20523;-89
2024/02/07 08:32:21;;;;;;;8.23;1.38;;;5.20;99.90;;;;;;5104886;28;20047;-89
2024/02/07 08:34:47;;;;;;;8.85;1.25;;;4.60;99.90;;;;;;5106227;28;20125;-89
2024/02/07 08:37:14;;;;;;;11.32;2.65;;;4.90;99.90;;;;;;5101100;28;20060;-89
2024/02/07 08:39:40;;;;;;;7.82;1.50;;;4.30;99.90;;;;;;5101371;28;20399;-89
2024/02/07 08:42:07;;;;;;;12.63;1.88;;;4.40;99.90;;;;;;5104794;28;20035;-89
2024/02/07 08:44:34;;;;;;;10.27;1.50;;;5.30;99.90;;;;;;5102443;28;20043;-88
2024/02/07 08:47:00;;;;;;;10.43;1.33;;;4.90;99.90;;;;;;5115003;28;20101;-88
2024/02/07 08:49:27;;;;;;;11.95;1.67;;;4.40;99.90;;;;;;5100936;28;20044;-89
2024/02/07 08:51:53;;;;;;;13.60;1.80;;;4.40;99.90;;;;;;5096934;28;20032;-88
2024/02/07 08:54:20;;;;;;;14.60;1.63;;;4.40;99.90;;;;;;5106166;28;20697;-89
2024/02/07 08:56:47;;;;;;;11.75;1.65;;;4.90;99.90;;;;;;5104649;28;20035;-88
2024/02/07 08:59:13;;;;;;;11.50;1.88;;;5.50;99.90;;;;;;5105710;28;20115;-89
2024/02/07 09:01:40;;;;;;;11.13;1.73;;;4.50;99.90;;;;;;5112306;28;20115;-88
2024/02/07 09:04:06;;;;;;;10.90;1.92;;;5.20;99.90;;;;;;5110262;28;20044;-88
2024/02/07 09:06:33;;;;;;;16.20;1.75;;;5.20;99.90;;;;;;5107315;28;20066;-88
2024/02/07 09:09:01;;;;;;;12.60;1.60;;;4.50;99.90;;;;;;5106715;28;20043;-87
2024/02/07 09:11:31;;;;;;;11.00;1.77;;;4.50;99.90;;;;;;5105740;28;20032;-87
2024/02/07 09:13:57;;;;;;;9.73;1.80;;;4.50;99.90;;;;;;5098209;28;20408;-88
2024/02/07 09:16:24;;;;;;;7.20;1.38;;;4.90;99.90;;;;;;5109498;28;20036;-87
2024/02/07 09:18:52;;;;;;;7.38;1.45;;;5.20;99.90;;;;;;5103102;28;20047;-88
2024/02/07 09:21:19;;;;;;;10.88;1.77;;;5.50;99.90;;;;;;5111089;28;20078;-88
2024/02/07 09:23:46;;;;;;;7.30;1.50;;;4.40;99.90;;;;;;5100129;28;20068;-90
2024/02/07 09:26:14;;;;;;;10.80;2.17;;;5.20;99.90;;;;;;5104376;28;20046;-87
2024/02/07 09:28:41;;;;;;;8.27;1.50;;;5.30;99.90;;;;;;5110972;28;20044;-88
2024/02/07 09:31:08;;;;;;;13.40;2.00;;;4.40;99.90;;;;;;5111024;28;20101;-87
2024/02/07 09:33:35;;;;;;;10.25;1.95;;;4.40;99.90;;;;;;5105079;28;20032;-82
2024/02/07 09:36:02;;;;;;;13.45;2.33;;;4.60;99.90;;;;;;5119041;28;20028;-87
2024/02/07 09:38:29;;;;;;;13.00;1.55;;;4.50;99.90;;;;;;5121137;28;20524;-87
2024/02/07 09:40:57;;;;;;;10.75;1.52;;;4.80;99.90;;;;;;5101410;28;20129;-88
2024/02/07 09:43:24;;;;;;;14.63;1.67;;;5.00;99.90;;;;;;5104649;28;20040;-89
2024/02/07 09:46:00;;;;;;;7.78;1.45;;;4.70;99.90;;;;;;5110253;28;20040;-89
2024/02/07 09:48:27;;;;;;;12.23;1.67;;;5.10;99.90;;;;;;5105179;28;20047;-89
2024/02/07 09:50:57;;;;;;;6.93;1.33;;;4.90;99.90;;;;;;5096819;28;20039;-88
2024/02/07 09:53:25;;;;;;;20.30;1.70;;;5.50;99.90;;;;;;5116747;27;20061;-88
2024/02/07 09:55:54;;;;;;;11.25;1.58;;;4.90;99.90;;;;;;5111197;28;20039;-89
2024/02/07 09:58:21;;;;;;;16.73;1.90;;;5.00;99.90;;;;;;5100941;28;20032;-90
2024/02/07 10:00:50;;;;;;;11.02;1.50;;;5.60;99.90;;;;;;5101639;28;20089;-89
2024/02/07 10:03:25;;;;;;;15.95;1.55;;;5.00;99.90;;;;;;5106997;28;20124;-89
2024/02/07 10:05:56;;;;;;;14.57;1.87;;;6.00;99.90;;;;;;5112259;28;20035;-89
2024/02/07 10:08:26;;;;;;;8.45;1.80;;;6.30;99.90;;;;;;5111110;28;20061;-91
2024/02/07 10:10:53;;;;;;;7.65;1.45;;;5.20;99.90;;;;;;5108072;28;20484;-91
2024/02/07 10:13:20;;;;;;;11.25;2.03;;;5.20;99.90;;;;;;5101811;28;20074;-89
2024/02/07 10:15:48;;;;;;;9.75;1.65;;;5.30;99.90;;;;;;5096360;28;20085;-89
2024/02/07 10:18:14;;;;;;;12.02;1.73;;;6.20;99.90;;;;;;5098950;28;20051;-89
2024/02/07 10:20:54;;;;;;;7.30;1.58;;;5.50;99.90;;;;;;5117926;28;20040;-89
2024/02/07 10:23:21;;;;;;;15.88;2.30;;;6.00;99.90;;;;;;5114585;28;20384;-88
2024/02/07 10:25:55;;;;;;;11.02;1.70;;;5.80;99.90;;;;;;5124451;28;20047;-88
2024/02/07 10:28:24;;;;;;;9.65;1.63;;;5.90;99.90;;;;;;5103853;28;20512;-87
2024/02/07 10:31:02;;;;;;;14.65;4.07;;;5.80;99.90;;;;;;5102368;28;20035;-87
2024/02/07 10:33:39;;;;;;;12.57;2.00;;;5.90;99.90;;;;;;5101293;28;20242;-90
2024/02/07 10:36:06;;;;;;;9.77;1.67;;;6.00;99.90;;;;;;5105185;28;20044;-90
2024/02/07 10:38:34;;;;;;;16.05;1.95;;;6.00;99.90;;;;;;5103217;28;20118;-88
2024/02/07 10:41:02;;;;;;;13.00;1.75;;;6.00;99.90;;;;;;5105024;28;20046;-87
2024/02/07 10:43:33;;;;;;;9.82;1.60;;;6.70;99.90;;;;;;5127287;28;20491;-87
2024/02/07 10:46:04;;;;;;;12.50;1.98;;;6.10;99.90;;;;;;5126313;28;20161;-87
2024/02/07 10:48:33;;;;;;;13.35;2.05;;;7.00;99.90;;;;;;5113636;28;20063;-86
2024/02/07 10:50:59;;;;;;;9.85;1.42;;;6.20;99.90;;;;;;5098437;28;20036;-86
2024/02/07 10:53:28;;;;;;;12.25;1.67;;;7.00;99.90;;;;;;5100148;28;20381;-87
2024/02/07 10:55:59;;;;;;;12.45;2.20;;;6.30;99.90;;;;;;5104666;28;20047;-87
2024/02/07 10:58:27;;;;;;;12.63;1.50;;;7.30;99.90;;;;;;5108651;28;20048;-87
2024/02/07 11:00:56;;;;;;;10.10;1.27;;;6.30;99.90;;;;;;5101937;28;20035;-86
2024/02/07 11:03:25;;;;;;;7.63;1.58;;;6.50;99.90;;;;;;5105271;28;20040;-88
2024/02/07 11:05:52;;;;;;;12.43;1.73;;;6.20;99.90;;;;;;5111457;28;20092;-88
2024/02/07 11:08:19;;;;;;;7.10;1.48;;;6.80;99.90;;;;;;5125656;28;20046;-87
2024/02/07 11:10:46;;;;;;;7.97;1.42;;;7.30;99.90;;;;;;5101770;28;20119;-89
2024/02/07 11:13:13;;;;;;;12.25;1.65;;;7.20;99.90;;;;;;5105891;28;20050;-89
2024/02/07 11:15:40;;;;;;;7.38;1.50;;;6.30;99.90;;;;;;5101725;28;20032;-90
2024/02/07 11:18:10;;;;;;;9.95;1.88;;;6.30;99.90;;;;;;5110292;28;20043;-90
2024/02/07 11:20:37;;;;;;;6.45;1.48;;;6.40;99.90;;;;;;5095333;28;20084;-90
2024/02/07 11:23:13;;;;;;;9.45;1.50;;;6.50;99.90;;;;;;5101116;28;20374;-90
2024/02/07 11:25:40;;;;;;;;;;;6.50;99.90;;;;;;5095366;28;20044;-91
2024/02/07 11:28:08;;;;;;;9.10;1.45;;;6.50;99.90;;;;;;5091668;28;20309;-91
2024/02/07 11:30:35;;;;;;;10.95;1.63;;;6.70;99.90;;;;;;5097456;28;20099;-90
2024/02/07 11:33:02;;;;;;;11.45;1.42;;;6.80;99.90;;;;;;5111062;28;20040;-92
2024/02/07 11:35:33;;;;;;;10.93;1.42;;;6.40;99.90;;;;;;5102888;28;20052;-91
2024/02/07 11:38:03;;;;;;;8.20;1.25;;;6.70;99.90;;;;;;5102269;28;20071;-91
2024/02/07 11:40:43;;;;;;;9.50;1.70;;;6.40;99.90;;;;;;5100791;28;20036;-91
2024/02/07 11:43:20;;;;;;;8.77;1.58;;;6.70;99.90;;;;;;5103624;28;20485;-91
2024/02/07 11:45:50;;;;;;;11.38;1.33;;;6.50;99.90;;;;;;5106424;28;20091;-91
2024/02/07 11:48:18;;;;;;;8.85;1.40;;;6.50;99.90;;;;;;5103271;28;20074;-92
2024/02/07 11:50:45;;;;;;;7.93;1.38;;;6.60;99.90;;;;;;5118359;28;20116;-90
2024/02/07 11:53:26;;;;;;;9.65;1.30;;;6.80;99.90;;;;;;5100938;28;20047;-90
2024/02/07 11:55:52;;;;;;;9.45;1.67;;;7.00;99.90;;;;;;5096253;28;20374;-90
2024/02/07 11:58:22;;;;;;;8.65;1.23;;;6.60;99.90;;;;;;5104169;28;20044;-90
2024/02/07 12:00:49;;;;;;;10.00;1.60;;;6.60;99.90;;;;;;5101952;28;20544;-91
2024/02/07 12:03:19;;;;;;;8.20;2.33;;;7.20;99.90;;;;;;5097056;28;20071;-91
2024/02/07 12:05:46;;;;;;;11.88;1.83;;;6.60;99.90;;;;;;5093343;28;20037;-90
2024/02/07 12:08:13;;;;;;;10.10;1.40;;;6.60;99.90;;;;;;5094480;28;20045;-90
2024/02/07 12:10:40;;;;;;;8.20;1.27;;;6.60;99.90;;;;;;5106336;28;20076;-90
2024/02/07 12:13:09;;;;;;;11.93;1.90;;;6.60;99.90;;;;;;5091427;28;20075;-90
2024/02/07 12:15:36;;;;;;;8.60;1.17;;;7.00;99.90;;;;;;5094572;28;20044;-91
2024/02/07 12:18:05;;;;;;;10.30;1.33;;;6.90;99.90;;;;;;5093965;28;20048;-91
2024/02/07 12:20:33;;;;;;;9.93;1.70;;;6.60;99.90;;;;;;5118667;28;20036;-91
2024/02/07 12:23:01;;;;;;;9.60;1.60;;;7.40;99.90;;;;;;5098409;28;20090;-90
2024/02/07 12:25:28;;;;;;;9.50;1.58;;;6.90;99.90;;;;;;5093091;28;20093;-91
2024/02/07 12:27:54;;;;;;;7.78;1.27;;;6.60;99.90;;;;;;5094365;28;20135;-91
2024/02/07 12:30:21;;;;;;;12.52;1.75;;;7.00;99.90;;;;;;5111011;28;20044;-90
2024/02/07 12:32:49;;;;;;;12.30;1.65;;;7.70;99.90;;;;;;5107614;28;20035;-90
2024/02/07 12:35:17;;;;;;;4.82;1.35;;;7.10;99.90;;;;;;5116557;28;20050;-91
2024/02/07 12:37:44;;;;;;;9.48;1.50;;;6.90;99.90;;;;;;5108097;28;20035;-91
2024/02/07 12:40:13;;;;;;;6.15;1.20;;;7.60;99.90;;;;;;5106170;28;20813;-91
2024/02/07 12:42:40;;;;;;;7.20;1.30;;;6.50;99.90;;;;;;5098908;28;20032;-91
2024/02/07 12:45:10;;;;;;;8.75;1.70;;;6.40;99.90;;;;;;5106184;28;20036;-91
2024/02/07 12:47:36;;;;;;;16.25;1.85;;;6.70;99.90;;;;;;5108501;28;20492;-90
2024/02/07 12:50:04;;;;;;;7.00;1.35;;;6.30;99.90;;;;;;5122206;28;20036;-91
2024/02/07 12:52:30;;;;;;;13.63;1.50;;;6.40;99.90;;;;;;5105417;28;20465;-91
2024/02/07 12:54:57;;;;;;;15.77;1.80;;;6.40;99.90;;;;;;5108646;28;20039;-90
2024/02/07 12:57:25;;;;;;;5.68;1.92;;;7.00;99.90;;;;;;5104339;28;20544;-90
2024/02/07 12:59:52;;;;;;;12.98;2.17;;;6.30;99.90;;;;;;5102789;28;20070;-90
2024/02/07 13:02:19;;;;;;;6.28;1.17;;;7.00;99.90;;;;;;5107048;28;20047;-90
2024/02/07 13:04:47;;;;;;;5.45;1.13;;;6.40;99.90;;;;;;5100482;28;20044;-92
2024/02/07 13:07:15;;;;;;;14.07;1.35;;;6.40;99.90;;;;;;5121841;28;20047;-90
2024/02/07 13:09:44;;;;;;;9.15;2.10;;;6.50;99.90;;;;;;5097047;28;20039;-91
2024/02/07 13:12:11;;;;;;;18.50;4.93;;;6.50;99.90;;;;;;5102281;28;20047;-92
2024/02/07 13:14:39;;;;;;;15.23;3.42;;;7.00;99.90;;;;;;5112573;28;20032;-91
2024/02/07 13:17:05;;;;;;;7.18;1.77;;;6.60;99.90;;;;;;5105668;28;20027;-91
2024/02/07 13:19:32;;;;;;;9.85;1.70;;;6.60;99.90;;;;;;5112085;28;20104;-93
2024/02/07 13:21:59;;;;;;;10.02;1.52;;;6.60;99.90;;;;;;5099186;28;20040;-93
2024/02/07 13:24:25;;;;;;;6.57;1.45;;;6.60;99.90;;;;;;5104541;28;20047;-92
2024/02/07 13:26:52;;;;;;;10.70;1.50;;;6.70;99.90;;;;;;5101901;28;20079;-93
2024/02/07 13:29:20;;;;;;;13.00;1.70;;;7.80;99.90;;;;;;5112625;28;20508;-93
2024/02/07 13:31:47;;;;;;;7.65;1.67;;;6.80;99.90;;;;;;5105589;28;20036;-89
2024/02/07 13:34:14;;;;;;;7.82;1.73;;;6.80;99.90;;;;;;5097177;28;20119;-92
2024/02/07 13:36:41;;;;;;;11.05;1.85;;;6.80;99.90;;;;;;5099211;28;20029;-91
2024/02/07 13:39:08;;;;;;;6.82;1.75;;;7.20;99.90;;;;;;5104526;28;20630;-91
2024/02/07 13:41:35;;;;;;;5.43;1.40;;;6.90;99.90;;;;;;5114042;28;20047;-92
2024/02/07 13:44:02;;;;;;;8.45;1.60;;;6.80;99.90;;;;;;5105471;28;20044;-91
2024/02/07 13:46:28;;;;;;;10.30;1.90;;;7.10;99.90;;;;;;5096436;28;20507;-91
2024/02/07 13:49:01;;;;;;;5.65;1.10;;;6.70;99.90;;;;;;5097063;28;20045;-89
2024/02/07 13:51:28;;;;;;;9.68;1.30;;;7.20;99.90;;;;;;5110798;28;20085;-91
2024/02/07 13:53:56;;;;;;;14.20;1.92;;;7.50;99.90;;;;;;5100919;28;20040;-91
2024/02/07 13:56:22;;;;;;;8.23;1.52;;;7.40;99.90;;;;;;5115187;28;20040;-92